Time;durP1;ratioP1;P1;durP2;ratioP2;P2;SDS_P1;SDS_P2;PMS_P1;PMS_P2;Temp;Humidity;BMP_temperature;BMP_pressure;BME280_temperature;BME280_humidity;BME280_pressure;Samples;Min_cycle;Max_cycle;Signal;HPM_P1;HPM_P2
2020/12/09 00:00:15;;;;;;;12.80;7.80;;;4.00;99.90;;;;;;4955886;28;20804;-93
2020/12/09 00:02:40;;;;;;;12.63;6.87;;;4.00;99.90;;;;;;4943368;28;20764;-93
2020/12/09 00:05:09;;;;;;;13.20;6.50;;;3.90;99.90;;;;;;4973776;28;20211;-92
2020/12/09 00:07:36;;;;;;;7.50;5.73;;;3.90;99.90;;;;;;4964899;28;20255;-93
2020/12/09 00:10:06;;;;;;;8.43;6.30;;;3.80;99.90;;;;;;4984631;28;20354;-93
2020/12/09 00:12:32;;;;;;;7.80;5.73;;;3.80;99.90;;;;;;4957024;28;20212;-93
2020/12/09 00:14:59;;;;;;;8.90;4.37;;;3.70;99.90;;;;;;4963730;28;20224;-94
2020/12/09 00:17:25;;;;;;;6.53;5.93;;;3.70;99.90;;;;;;4989453;28;20223;-93
2020/12/09 00:19:51;;;;;;;6.73;5.50;;;3.60;99.90;;;;;;4942277;28;20231;-93
2020/12/09 00:22:17;;;;;;;6.93;4.77;;;3.60;99.90;;;;;;4949977;28;21281;-93
2020/12/09 00:24:42;;;;;;;12.57;5.17;;;3.60;99.90;;;;;;4967508;28;20196;-92
2020/12/09 00:27:11;;;;;;;10.03;6.60;;;3.60;99.90;;;;;;4966063;28;20260;-93
2020/12/09 00:29:37;;;;;;;10.50;7.20;;;3.60;99.90;;;;;;4983492;28;20253;-92
2020/12/09 00:32:06;;;;;;;9.63;6.73;;;3.70;99.90;;;;;;4965755;28;20700;-93
2020/12/09 00:34:34;;;;;;;16.70;5.07;;;3.70;99.90;;;;;;4946898;28;20685;-92
2020/12/09 00:37:00;;;;;;;9.93;6.07;;;3.70;99.90;;;;;;4965956;28;20180;-93
2020/12/09 00:39:26;;;;;;;9.20;6.47;;;3.80;99.90;;;;;;4949963;28;20215;-93
2020/12/09 00:41:52;;;;;;;8.87;4.47;;;3.80;99.90;;;;;;4965875;28;20618;-92
2020/12/09 00:44:20;;;;;;;6.67;4.30;;;3.80;99.90;;;;;;4981785;28;20622;-93
2020/12/09 00:46:48;;;;;;;7.37;6.27;;;3.90;99.90;;;;;;4981068;28;20259;-92
2020/12/09 00:49:16;;;;;;;10.33;4.57;;;3.90;99.90;;;;;;4981013;28;20716;-93
2020/12/09 00:51:42;;;;;;;5.67;5.10;;;3.80;99.90;;;;;;4967550;28;20719;-92
2020/12/09 00:54:08;;;;;;;7.60;5.20;;;3.80;99.90;;;;;;4980116;28;20344;-93
2020/12/09 00:56:34;;;;;;;8.57;6.57;;;3.70;99.90;;;;;;4981445;28;21122;-92
2020/12/09 00:59:03;;;;;;;9.03;5.23;;;3.60;99.90;;;;;;4988832;28;20489;-93
2020/12/09 01:01:29;;;;;;;8.50;4.80;;;3.60;99.90;;;;;;4964996;28;20220;-93
2020/12/09 01:03:57;;;;;;;8.27;6.13;;;3.60;99.90;;;;;;4984393;28;20180;-94
2020/12/09 01:06:23;;;;;;;7.30;5.07;;;3.50;99.90;;;;;;4964934;28;20236;-93
2020/12/09 01:08:49;;;;;;;4.97;3.50;;;3.50;99.90;;;;;;4965154;28;20216;-94
2020/12/09 01:11:16;;;;;;;8.90;5.33;;;3.30;99.90;;;;;;4962845;28;20746;-94
2020/12/09 01:13:44;;;;;;;5.07;4.63;;;3.20;99.90;;;;;;4973645;28;20378;-94
2020/12/09 01:16:16;;;;;;;9.47;6.20;;;3.30;99.90;;;;;;4980031;28;20222;-94
2020/12/09 01:18:42;;;;;;;6.60;4.40;;;3.30;99.90;;;;;;4983920;28;20211;-93
2020/12/09 01:21:08;;;;;;;7.87;5.23;;;3.40;99.90;;;;;;4964565;28;20756;-93
2020/12/09 01:23:35;;;;;;;8.00;6.47;;;3.50;99.90;;;;;;4965204;28;21031;-93
2020/12/09 01:26:01;;;;;;;7.03;4.63;;;3.40;99.90;;;;;;4981884;28;20677;-94
2020/12/09 01:28:26;;;;;;;15.50;5.70;;;3.30;99.90;;;;;;4955439;28;20286;-93
2020/12/09 01:30:52;;;;;;;9.20;6.07;;;3.30;99.90;;;;;;4934298;28;21229;-94
2020/12/09 01:33:18;;;;;;;5.80;5.23;;;3.30;99.90;;;;;;4964502;28;20282;-93
2020/12/09 01:35:44;;;;;;;8.53;5.87;;;3.40;99.90;;;;;;4964649;28;20219;-93
2020/12/09 01:38:09;;;;;;;5.03;3.17;;;3.50;99.90;;;;;;4981495;28;20218;-92
2020/12/09 01:40:35;;;;;;;7.97;6.03;;;3.50;99.90;;;;;;4980930;28;20219;-93
2020/12/09 01:43:04;;;;;;;7.07;5.40;;;3.50;99.90;;;;;;4966635;28;20195;-94
2020/12/09 01:45:33;;;;;;;9.40;5.73;;;3.40;99.90;;;;;;4974595;28;20845;-93
2020/12/09 01:47:59;;;;;;;8.63;5.70;;;3.40;99.90;;;;;;4965230;28;20287;-93
2020/12/09 01:50:25;;;;;;;8.50;5.27;;;3.40;99.90;;;;;;4964222;28;20235;-93
2020/12/09 01:52:51;;;;;;;10.83;6.23;;;3.50;99.90;;;;;;4981759;28;20215;-93
2020/12/09 01:55:17;;;;;;;14.17;6.40;;;3.50;99.90;;;;;;4963686;28;20246;-92
2020/12/09 01:57:42;;;;;;;8.17;6.40;;;3.50;99.90;;;;;;4973912;28;20926;-93
2020/12/09 02:00:08;;;;;;;7.00;5.27;;;3.50;99.90;;;;;;4967192;28;20212;-92
2020/12/09 02:02:34;;;;;;;8.80;5.53;;;3.30;99.90;;;;;;4985982;28;20707;-93
2020/12/09 02:05:01;;;;;;;10.57;4.87;;;3.30;99.90;;;;;;4975063;28;20216;-94
2020/12/09 02:07:28;;;;;;;8.40;5.47;;;3.30;99.90;;;;;;4967633;28;20220;-92
2020/12/09 02:10:03;;;;;;;7.60;5.87;;;3.30;99.90;;;;;;4987009;28;20713;-91
2020/12/09 02:12:32;;;;;;;9.07;5.77;;;3.30;99.90;;;;;;4985113;28;20223;-94
2020/12/09 02:14:58;;;;;;;4.60;4.17;;;3.30;99.90;;;;;;4984885;28;20711;-93
2020/12/09 02:17:24;;;;;;;5.97;5.20;;;3.20;99.90;;;;;;4988938;28;20215;-93
2020/12/09 02:19:50;;;;;;;8.47;5.27;;;3.20;99.90;;;;;;4968766;28;20304;-93
2020/12/09 02:22:21;;;;;;;7.67;4.90;;;3.10;99.90;;;;;;4969065;28;20637;-93
2020/12/09 02:24:47;;;;;;;10.23;6.07;;;3.00;99.90;;;;;;4954943;28;20208;-91
2020/12/09 02:27:13;;;;;;;6.03;4.80;;;3.00;99.90;;;;;;4967721;28;20312;-92
2020/12/09 02:29:39;;;;;;;7.03;4.67;;;3.00;99.90;;;;;;4967033;28;20235;-93
2020/12/09 02:32:07;;;;;;;8.03;5.97;;;3.00;99.90;;;;;;4967217;28;20236;-92
2020/12/09 02:34:33;;;;;;;5.70;4.80;;;3.00;99.90;;;;;;4984357;28;20231;-92
2020/12/09 02:36:59;;;;;;;4.57;4.20;;;3.00;99.90;;;;;;4976478;28;20202;-93
2020/12/09 02:39:36;;;;;;;6.97;4.90;;;3.00;99.90;;;;;;4967266;28;20604;-93
2020/12/09 02:42:03;;;;;;;6.37;4.83;;;3.00;99.90;;;;;;4968424;28;20211;-93
2020/12/09 02:44:31;;;;;;;9.83;5.90;;;2.90;99.90;;;;;;4975772;28;20215;-93
2020/12/09 02:46:59;;;;;;;6.53;5.93;;;3.00;99.90;;;;;;4967522;28;20271;-93
2020/12/09 02:49:25;;;;;;;7.13;4.00;;;3.00;99.90;;;;;;4982892;28;20240;-93
2020/12/09 02:51:53;;;;;;;9.70;6.17;;;3.10;99.90;;;;;;4938673;28;20184;-92
2020/12/09 02:54:20;;;;;;;4.60;4.17;;;3.10;99.90;;;;;;4967718;28;20712;-93
2020/12/09 02:56:45;;;;;;;7.53;6.40;;;3.20;99.90;;;;;;4951678;28;20228;-92
2020/12/09 02:59:11;;;;;;;8.27;6.43;;;3.20;99.90;;;;;;4991024;28;20220;-92
2020/12/09 03:01:37;;;;;;;5.60;4.23;;;3.10;99.90;;;;;;4972638;28;20387;-93
2020/12/09 03:04:03;;;;;;;8.20;6.33;;;3.10;99.90;;;;;;4985142;28;20189;-90
2020/12/09 03:06:29;;;;;;;6.57;4.57;;;3.10;99.90;;;;;;4966646;28;20548;-93
2020/12/09 03:08:55;;;;;;;5.60;5.07;;;3.10;99.90;;;;;;4966716;28;20227;-92
2020/12/09 03:11:21;;;;;;;7.43;5.30;;;3.20;99.90;;;;;;4966839;28;20220;-92
2020/12/09 03:13:47;;;;;;;8.97;5.77;;;3.30;99.90;;;;;;4972660;28;20289;-92
2020/12/09 03:16:13;;;;;;;9.67;6.70;;;3.20;99.90;;;;;;4976829;28;20572;-93
2020/12/09 03:18:38;;;;;;;6.67;6.03;;;3.20;99.90;;;;;;4963183;28;20629;-94
2020/12/09 03:21:06;;;;;;;11.40;6.23;;;3.30;99.90;;;;;;4972116;28;20235;-93
2020/12/09 03:23:36;;;;;;;6.13;5.13;;;3.30;99.90;;;;;;4980263;28;20338;-94
2020/12/09 03:26:03;;;;;;;6.43;5.30;;;3.30;99.90;;;;;;4970627;28;20220;-93
2020/12/09 03:28:30;;;;;;;6.23;5.07;;;3.30;99.90;;;;;;4963580;28;20319;-93
2020/12/09 03:30:56;;;;;;;8.53;5.83;;;3.30;99.90;;;;;;4979932;28;20239;-93
2020/12/09 03:33:22;;;;;;;12.17;7.73;;;3.30;99.90;;;;;;4979943;28;20228;-93
2020/12/09 03:35:48;;;;;;;10.23;7.67;;;3.40;99.90;;;;;;4980495;28;20751;-92
2020/12/09 03:38:14;;;;;;;12.10;5.37;;;3.40;99.90;;;;;;4966334;28;20307;-92
2020/12/09 03:40:40;;;;;;;11.03;5.57;;;3.40;99.90;;;;;;4983390;28;20260;-92
2020/12/09 03:43:07;;;;;;;9.47;6.53;;;3.40;99.90;;;;;;4965885;28;20229;-92
2020/12/09 03:45:32;;;;;;;8.80;5.87;;;3.40;99.90;;;;;;4968403;28;20188;-93
2020/12/09 03:48:00;;;;;;;8.27;6.53;;;3.40;99.90;;;;;;4966501;28;20330;-93
2020/12/09 03:50:25;;;;;;;10.03;7.33;;;3.30;99.90;;;;;;4966338;28;20297;-93
2020/12/09 03:52:51;;;;;;;12.17;7.03;;;3.20;99.90;;;;;;4966582;28;20220;-93
2020/12/09 03:55:17;;;;;;;6.70;6.00;;;3.20;99.90;;;;;;4967330;28;20735;-93
2020/12/09 03:57:43;;;;;;;4.37;4.07;;;3.20;99.90;;;;;;4968838;28;20215;-92
2020/12/09 04:00:09;;;;;;;6.00;4.17;;;3.20;99.90;;;;;;4966040;28;20215;-93
2020/12/09 04:02:35;;;;;;;6.50;5.17;;;3.20;99.90;;;;;;4982197;28;20339;-93
2020/12/09 04:05:00;;;;;;;10.33;5.40;;;3.10;99.90;;;;;;4966703;28;20278;-92
2020/12/09 04:07:26;;;;;;;15.37;8.20;;;3.10;99.90;;;;;;4965564;28;20238;-91
2020/12/09 04:09:55;;;;;;;8.00;5.87;;;3.10;99.90;;;;;;4967267;28;20212;-92
2020/12/09 04:12:23;;;;;;;7.80;5.03;;;3.20;99.90;;;;;;4965838;28;20629;-93
2020/12/09 04:14:55;;;;;;;11.17;7.23;;;3.20;99.90;;;;;;4965655;28;20243;-92
2020/12/09 04:17:21;;;;;;;7.37;5.23;;;3.20;99.90;;;;;;4948452;28;20219;-92
2020/12/09 04:19:47;;;;;;;10.23;7.13;;;3.10;99.90;;;;;;4966223;28;20223;-93
2020/12/09 04:22:13;;;;;;;10.23;6.20;;;3.20;99.90;;;;;;4972190;28;20195;-93
2020/12/09 04:24:39;;;;;;;9.80;6.73;;;3.20;99.90;;;;;;4985590;28;20188;-93
2020/12/09 04:27:05;;;;;;;8.60;6.87;;;3.20;99.90;;;;;;4967004;28;20782;-93
2020/12/09 04:29:34;;;;;;;9.07;5.67;;;3.30;99.90;;;;;;4964458;28;20700;-93
2020/12/09 04:32:03;;;;;;;10.00;4.70;;;3.20;99.90;;;;;;4971121;28;20224;-94
2020/12/09 04:34:30;;;;;;;10.33;6.30;;;3.30;99.90;;;;;;4972468;28;20220;-93
2020/12/09 04:36:55;;;;;;;7.67;5.50;;;3.30;99.90;;;;;;4967694;28;20659;-93
2020/12/09 04:39:22;;;;;;;14.57;5.43;;;3.30;99.90;;;;;;4965172;28;20219;-93
2020/12/09 04:41:49;;;;;;;10.47;6.60;;;3.30;99.90;;;;;;4982647;28;20666;-94
2020/12/09 04:44:15;;;;;;;7.13;5.77;;;3.40;99.90;;;;;;4965705;28;20627;-92
2020/12/09 04:46:50;;;;;;;12.67;5.87;;;3.30;99.90;;;;;;4964891;28;20250;-93
2020/12/09 04:49:19;;;;;;;8.00;6.67;;;3.30;99.90;;;;;;4981899;28;20856;-93
2020/12/09 04:51:45;;;;;;;9.13;7.53;;;3.30;99.90;;;;;;4984529;28;20191;-93
2020/12/09 04:54:15;;;;;;;21.53;6.67;;;3.30;99.90;;;;;;4982194;28;20220;-93
2020/12/09 04:56:56;;;;;;;8.20;5.57;;;3.30;99.90;;;;;;4989113;28;20231;-92
2020/12/09 04:59:24;;;;;;;7.27;6.60;;;3.20;99.90;;;;;;4964879;28;20367;-92
2020/12/09 05:02:10;;;;;;;8.30;7.47;;;3.20;99.90;;;;;;4982710;28;20246;-93
2020/12/09 05:04:37;;;;;;;8.70;5.93;;;3.10;99.90;;;;;;4971978;28;20286;-93
2020/12/09 05:07:06;;;;;;;19.80;5.90;;;3.00;99.90;;;;;;4984041;28;20188;-93
2020/12/09 05:09:38;;;;;;;5.53;5.03;;;3.10;99.90;;;;;;4950080;28;20230;-93
2020/12/09 05:12:06;;;;;;;18.13;6.70;;;3.10;99.90;;;;;;4965861;28;20281;-93
2020/12/09 05:14:38;;;;;;;27.40;6.40;;;2.90;99.90;;;;;;4965589;28;20219;-92
2020/12/09 05:17:07;;;;;;;34.83;6.67;;;2.90;99.90;;;;;;4964580;28;20218;-92
2020/12/09 05:19:33;;;;;;;7.63;5.80;;;2.90;99.90;;;;;;4972132;28;20230;-92
2020/12/09 05:22:00;;;;;;;7.17;4.83;;;3.00;99.90;;;;;;4968260;28;20225;-93
2020/12/09 05:24:28;;;;;;;7.40;6.30;;;3.00;99.90;;;;;;4959033;28;20227;-93
2020/12/09 05:26:55;;;;;;;10.27;5.50;;;3.00;99.90;;;;;;4969022;28;20681;-94
2020/12/09 05:29:21;;;;;;;9.53;5.73;;;2.90;99.90;;;;;;4966931;28;20235;-93
2020/12/09 05:31:49;;;;;;;6.37;5.47;;;2.90;99.90;;;;;;4981546;28;20233;-94
2020/12/09 05:34:26;;;;;;;6.43;5.33;;;2.80;99.90;;;;;;4964685;28;20184;-89
2020/12/09 05:36:53;;;;;;;6.90;6.20;;;2.80;99.90;;;;;;4964787;28;20184;-87
2020/12/09 05:39:20;;;;;;;12.53;7.00;;;2.90;99.90;;;;;;4963421;28;20223;-87
2020/12/09 05:41:46;;;;;;;6.90;4.60;;;2.80;99.90;;;;;;4963673;28;20228;-87
2020/12/09 05:44:12;;;;;;;7.70;4.77;;;2.70;99.90;;;;;;4979009;28;20234;-87
2020/12/09 05:46:57;;;;;;;9.07;5.83;;;2.70;99.90;;;;;;4963198;28;21313;-89
2020/12/09 05:49:25;;;;;;;7.60;5.77;;;2.80;99.90;;;;;;4979331;28;20216;-89
2020/12/09 05:52:14;;;;;;;6.37;5.53;;;2.70;99.90;;;;;;4982350;28;20192;-88
2020/12/09 05:54:48;;;;;;;7.00;4.43;;;2.70;99.90;;;;;;4964099;28;20246;-87
2020/12/09 05:57:16;;;;;;;8.23;7.10;;;2.70;99.90;;;;;;4948229;28;20215;-88
2020/12/09 05:59:43;;;;;;;9.63;5.93;;;2.70;99.90;;;;;;4947868;28;20444;-88
2020/12/09 06:02:17;;;;;;;8.63;7.67;;;2.70;99.90;;;;;;4981867;28;20215;-89
2020/12/09 06:04:53;;;;;;;7.43;5.87;;;2.80;99.90;;;;;;4979705;28;20649;-87
2020/12/09 06:07:20;;;;;;;11.60;5.60;;;2.80;99.90;;;;;;4979880;28;20188;-87
2020/12/09 06:10:07;;;;;;;6.93;6.10;;;2.80;99.90;;;;;;4949151;28;20227;-89
2020/12/09 06:12:50;;;;;;;7.00;6.10;;;2.70;99.90;;;;;;4981942;28;20230;-87
2020/12/09 06:15:17;;;;;;;9.17;7.07;;;2.70;99.90;;;;;;4987807;28;20224;-89
2020/12/09 06:17:43;;;;;;;10.83;6.30;;;2.80;99.90;;;;;;4986967;28;20580;-88
2020/12/09 06:20:09;;;;;;;7.47;4.47;;;2.70;99.90;;;;;;4946083;28;20969;-87
2020/12/09 06:22:35;;;;;;;12.10;8.90;;;2.70;99.90;;;;;;4985579;28;20234;-87
2020/12/09 06:25:05;;;;;;;11.43;7.53;;;2.70;99.90;;;;;;4985868;28;20188;-88
2020/12/09 06:27:36;;;;;;;7.60;6.73;;;2.60;99.90;;;;;;4963084;28;20223;-88
2020/12/09 06:30:10;;;;;;;5.77;5.17;;;2.50;99.90;;;;;;4964068;28;20578;-86
2020/12/09 06:32:48;;;;;;;10.50;6.03;;;2.40;99.90;;;;;;4948406;28;20973;-88
2020/12/09 06:35:18;;;;;;;15.27;5.77;;;2.30;99.90;;;;;;4963123;28;20230;-88
2020/12/09 06:38:09;;;;;;;7.13;5.73;;;2.30;99.90;;;;;;4963604;28;21294;-88
2020/12/09 06:40:39;;;;;;;10.17;5.97;;;2.20;99.90;;;;;;4963335;28;20240;-88
2020/12/09 06:43:09;;;;;;;13.47;5.13;;;2.20;99.90;;;;;;4962757;28;20200;-88
2020/12/09 06:45:45;;;;;;;6.67;4.67;;;2.20;99.90;;;;;;4987775;28;20210;-88
2020/12/09 06:48:11;;;;;;;41.50;5.30;;;2.20;99.90;;;;;;4966734;28;20243;-88
2020/12/09 06:50:37;;;;;;;9.63;6.70;;;2.10;99.90;;;;;;4967105;28;20242;-88
2020/12/09 06:53:21;;;;;;;24.80;4.17;;;2.10;99.90;;;;;;4990178;28;20732;-88
2020/12/09 06:55:50;;;;;;;6.87;6.27;;;2.10;99.90;;;;;;4989618;28;20791;-88
2020/12/09 06:58:23;;;;;;;6.93;5.50;;;2.10;99.90;;;;;;4983362;28;20180;-88
2020/12/09 07:01:05;;;;;;;5.90;4.13;;;2.00;99.90;;;;;;4968049;28;20211;-89
2020/12/09 07:03:36;;;;;;;6.90;4.40;;;1.90;99.90;;;;;;4983754;28;20821;-88
2020/12/09 07:06:22;;;;;;;3.53;3.33;;;2.00;99.90;;;;;;4991585;28;20230;-86
2020/12/09 07:08:49;;;;;;;5.37;4.93;;;1.90;99.90;;;;;;4966261;28;20243;-88
2020/12/09 07:11:15;;;;;;;4.57;4.23;;;1.90;99.90;;;;;;4972383;28;20240;-88
2020/12/09 07:13:41;;;;;;;3.03;2.83;;;1.90;99.90;;;;;;4983091;28;20217;-89
2020/12/09 07:16:07;;;;;;;5.67;4.33;;;1.90;99.90;;;;;;4948319;28;20707;-87
2020/12/09 07:18:37;;;;;;;33.97;4.97;;;1.90;99.90;;;;;;4966286;28;21098;-85
2020/12/09 07:21:05;;;;;;;12.63;5.50;;;1.90;99.90;;;;;;4983831;28;20526;-88
2020/12/09 07:23:31;;;;;;;7.83;5.47;;;1.80;99.90;;;;;;4949785;28;20299;-88
2020/12/09 07:25:59;;;;;;;5.20;4.20;;;1.80;99.90;;;;;;4965323;28;20226;-87
2020/12/09 07:28:31;;;;;;;4.27;2.90;;;1.70;99.90;;;;;;4982347;28;20309;-87
2020/12/09 07:31:07;;;;;;;3.67;3.37;;;1.70;99.90;;;;;;4972838;28;20715;-86
2020/12/09 07:33:33;;;;;;;3.33;2.50;;;1.70;99.90;;;;;;4965676;28;20242;-86
2020/12/09 07:36:05;;;;;;;4.00;3.23;;;1.70;99.90;;;;;;4973334;28;20255;-87
2020/12/09 07:38:30;;;;;;;19.40;3.80;;;1.60;99.90;;;;;;4950427;28;20212;-89
2020/12/09 07:41:03;;;;;;;2.03;1.90;;;1.60;99.90;;;;;;4983720;28;20223;-87
2020/12/09 07:43:29;;;;;;;4.10;3.20;;;1.60;99.90;;;;;;4988728;28;20224;-87
2020/12/09 07:46:02;;;;;;;3.27;3.10;;;1.60;99.90;;;;;;4985318;28;20211;-89
2020/12/09 07:48:30;;;;;;;4.13;3.70;;;1.60;99.90;;;;;;4966734;28;20704;-88
2020/12/09 07:50:58;;;;;;;16.80;4.37;;;1.60;99.90;;;;;;4965959;28;20235;-91
2020/12/09 07:53:25;;;;;;;7.00;4.13;;;1.60;99.90;;;;;;4982307;28;20224;-88
2020/12/09 07:55:51;;;;;;;8.10;4.03;;;1.60;99.90;;;;;;4971941;28;20236;-88
2020/12/09 07:58:17;;;;;;;3.07;2.77;;;1.60;99.90;;;;;;4982839;28;20245;-88
2020/12/09 08:00:47;;;;;;;26.97;3.93;;;1.60;99.90;;;;;;4974722;28;20307;-90
2020/12/09 08:03:21;;;;;;;3.03;2.77;;;1.60;99.90;;;;;;4974150;28;20704;-88
2020/12/09 08:05:48;;;;;;;4.50;3.37;;;1.60;99.90;;;;;;4981139;28;20215;-88
2020/12/09 08:08:17;;;;;;;4.33;4.00;;;1.60;99.90;;;;;;4945508;28;20216;-88
2020/12/09 08:10:45;;;;;;;3.87;3.43;;;1.70;99.90;;;;;;4977140;28;20327;-88
2020/12/09 08:13:20;;;;;;;3.27;2.73;;;1.60;99.90;;;;;;4962487;28;20264;-87
2020/12/09 08:15:59;;;;;;;4.90;3.67;;;1.60;99.90;;;;;;4978146;28;20301;-88
2020/12/09 08:18:26;;;;;;;4.60;4.20;;;1.60;99.90;;;;;;4960845;28;20251;-89
2020/12/09 08:20:53;;;;;;;14.07;4.43;;;1.60;99.90;;;;;;4984613;28;21153;-89
2020/12/09 08:23:19;;;;;;;13.07;4.33;;;1.70;99.90;;;;;;4985596;28;20338;-90
2020/12/09 08:25:51;;;;;;;3.07;1.83;;;1.70;99.90;;;;;;4962732;28;20231;-87
2020/12/09 08:28:22;;;;;;;3.13;2.33;;;1.70;99.90;;;;;;4962338;28;20188;-90
2020/12/09 08:30:49;;;;;;;4.93;4.50;;;1.70;99.90;;;;;;4966990;28;20258;-89
2020/12/09 08:33:17;;;;;;;41.10;3.27;;;1.70;99.90;;;;;;4988178;28;20231;-90
2020/12/09 08:35:43;;;;;;;4.43;3.70;;;1.70;99.90;;;;;;4981694;28;20580;-89
2020/12/09 08:38:10;;;;;;;12.17;2.47;;;1.70;99.90;;;;;;4982661;28;20236;-90
2020/12/09 08:40:36;;;;;;;6.13;3.87;;;1.70;99.90;;;;;;4982415;28;20339;-90
2020/12/09 08:43:02;;;;;;;4.80;3.20;;;1.70;99.90;;;;;;4951362;28;20188;-89
2020/12/09 08:45:28;;;;;;;32.27;4.87;;;1.70;99.90;;;;;;4965185;28;20274;-90
2020/12/09 08:47:54;;;;;;;3.33;3.07;;;1.70;99.90;;;;;;4980428;28;20219;-89
2020/12/09 08:50:21;;;;;;;7.27;5.17;;;1.60;99.90;;;;;;4988963;28;20232;-89
2020/12/09 08:52:47;;;;;;;10.27;4.70;;;1.60;99.90;;;;;;4990986;28;20418;-91
2020/12/09 08:55:13;;;;;;;7.70;3.70;;;1.70;99.90;;;;;;4966245;28;20610;-90
2020/12/09 08:57:39;;;;;;;9.20;4.23;;;1.60;99.90;;;;;;4951464;28;20188;-89
2020/12/09 09:00:07;;;;;;;3.87;3.57;;;1.60;99.90;;;;;;4979754;28;20315;-91
2020/12/09 09:02:33;;;;;;;30.63;3.60;;;1.50;99.90;;;;;;4965307;28;20239;-90
2020/12/09 09:04:59;;;;;;;4.50;3.33;;;1.50;99.90;;;;;;4972844;28;20228;-89
2020/12/09 09:07:25;;;;;;;10.00;5.63;;;1.60;99.90;;;;;;4949418;28;20226;-91
2020/12/09 09:09:51;;;;;;;2.93;2.73;;;1.60;99.90;;;;;;4966677;28;20254;-90
2020/12/09 09:12:17;;;;;;;5.00;3.83;;;1.50;99.90;;;;;;4989877;28;20331;-90
2020/12/09 09:14:43;;;;;;;11.70;5.57;;;1.50;99.90;;;;;;4981259;28;21114;-88
2020/12/09 09:17:09;;;;;;;5.20;4.63;;;1.60;99.90;;;;;;4947214;28;20223;-89
2020/12/09 09:19:35;;;;;;;5.90;3.87;;;1.60;99.90;;;;;;4990498;28;20227;-89
2020/12/09 09:22:01;;;;;;;15.10;6.47;;;1.60;99.90;;;;;;4975838;28;21193;-89
2020/12/09 09:24:27;;;;;;;5.93;3.37;;;1.60;99.90;;;;;;4948789;28;20297;-91
2020/12/09 09:26:52;;;;;;;7.60;4.27;;;1.70;99.90;;;;;;4973529;28;20212;-90
2020/12/09 09:29:18;;;;;;;2.57;2.37;;;1.80;99.90;;;;;;4964878;28;20363;-89
2020/12/09 09:31:44;;;;;;;14.03;3.93;;;1.80;99.90;;;;;;4948992;28;21197;-90
2020/12/09 09:34:10;;;;;;;7.07;5.47;;;1.80;99.90;;;;;;4964849;28;20646;-89
2020/12/09 09:36:36;;;;;;;4.77;4.37;;;1.90;99.90;;;;;;4982859;28;20275;-90
2020/12/09 09:39:02;;;;;;;6.07;4.57;;;1.80;99.90;;;;;;4948754;28;20286;-90
2020/12/09 09:41:28;;;;;;;28.30;5.43;;;1.90;99.90;;;;;;4970997;28;20222;-91
2020/12/09 09:43:54;;;;;;;6.47;4.73;;;1.90;99.90;;;;;;4972175;28;20223;-88
2020/12/09 09:46:23;;;;;;;12.47;4.70;;;1.90;99.90;;;;;;4948302;28;21193;-90
2020/12/09 09:48:49;;;;;;;5.87;4.30;;;2.00;99.90;;;;;;4965967;28;20202;-90
2020/12/09 09:51:16;;;;;;;11.07;4.53;;;1.90;99.90;;;;;;4964549;28;20236;-92
2020/12/09 09:53:42;;;;;;;11.17;4.67;;;1.90;99.90;;;;;;4965563;28;20228;-90
2020/12/09 09:56:08;;;;;;;21.43;7.00;;;2.00;99.90;;;;;;4981005;28;20239;-90
2020/12/09 09:58:34;;;;;;;34.57;6.27;;;2.10;99.90;;;;;;4980576;28;20278;-89
2020/12/09 10:00:59;;;;;;;35.00;5.60;;;2.10;99.90;;;;;;4989975;28;20330;-89
2020/12/09 10:03:25;;;;;;;4.87;3.47;;;1.90;99.90;;;;;;4948592;28;20270;-91
2020/12/09 10:05:55;;;;;;;17.73;5.57;;;1.80;99.90;;;;;;4948598;28;20218;-89
2020/12/09 10:08:22;;;;;;;15.17;5.80;;;1.90;99.90;;;;;;4948333;28;20215;-91
2020/12/09 10:10:48;;;;;;;6.83;5.07;;;2.10;99.90;;;;;;4974437;28;20602;-91
2020/12/09 10:13:13;;;;;;;10.13;5.30;;;2.10;99.90;;;;;;4964682;28;20188;-92
2020/12/09 10:15:39;;;;;;;10.87;5.47;;;2.10;99.90;;;;;;4971712;28;20202;-91
2020/12/09 10:18:05;;;;;;;9.00;6.87;;;2.20;99.90;;;;;;4949236;28;20646;-92
2020/12/09 10:20:31;;;;;;;8.23;6.97;;;2.20;99.90;;;;;;4967198;28;20220;-91
2020/12/09 10:22:57;;;;;;;18.43;6.60;;;2.20;99.90;;;;;;4968004;28;20692;-86
2020/12/09 10:25:24;;;;;;;23.03;7.27;;;2.30;99.90;;;;;;4959654;28;20180;-90
2020/12/09 10:27:50;;;;;;;31.43;4.83;;;2.00;99.90;;;;;;4976359;28;20200;-88
2020/12/09 10:30:16;;;;;;;9.60;7.37;;;2.00;99.90;;;;;;4973920;28;20333;-93
2020/12/09 10:32:45;;;;;;;36.43;7.93;;;2.00;99.90;;;;;;4969241;28;20295;-93
2020/12/09 10:35:11;;;;;;;24.87;5.17;;;2.20;99.90;;;;;;4975908;28;20212;-90
2020/12/09 10:37:36;;;;;;;6.90;5.97;;;2.10;99.90;;;;;;4951916;28;20577;-92
2020/12/09 10:40:03;;;;;;;9.17;5.57;;;2.20;99.90;;;;;;4977292;28;20374;-93
2020/12/09 10:42:29;;;;;;;26.63;6.67;;;2.20;99.90;;;;;;4992503;28;20220;-92
2020/12/09 10:44:55;;;;;;;5.07;4.67;;;2.10;99.90;;;;;;4974796;28;20223;-93
2020/12/09 10:47:21;;;;;;;6.20;4.60;;;1.90;99.90;;;;;;4969101;28;20227;-91
2020/12/09 10:49:47;;;;;;;14.40;4.97;;;1.70;99.90;;;;;;4967346;28;20298;-90
2020/12/09 10:52:13;;;;;;;8.20;7.23;;;1.80;99.90;;;;;;4967721;28;20200;-93
2020/12/09 10:54:40;;;;;;;8.07;5.53;;;1.80;99.90;;;;;;4985477;28;20188;-90
2020/12/09 10:57:06;;;;;;;6.87;4.83;;;1.90;99.90;;;;;;4975280;28;20222;-93
2020/12/09 10:59:35;;;;;;;4.83;4.57;;;1.90;99.90;;;;;;4966531;28;20873;-95
2020/12/09 11:02:01;;;;;;;3.67;3.33;;;1.90;99.90;;;;;;4983185;28;21005;-95
2020/12/09 11:04:29;;;;;;;10.33;5.67;;;2.00;99.90;;;;;;4975232;28;20243;-93
2020/12/09 11:06:58;;;;;;;16.77;7.67;;;2.10;99.90;;;;;;4968026;28;20180;-94
2020/12/09 11:09:24;;;;;;;12.87;5.63;;;2.10;99.90;;;;;;4965007;28;20239;-93
2020/12/09 11:11:55;;;;;;;14.33;7.03;;;2.00;99.90;;;;;;4966274;28;20315;-93
2020/12/09 11:14:21;;;;;;;5.23;4.57;;;1.90;99.90;;;;;;4959741;28;20227;-94
2020/12/09 11:16:46;;;;;;;2.50;2.33;;;2.00;99.90;;;;;;4983248;28;20220;-93
2020/12/09 11:19:12;;;;;;;42.83;6.57;;;1.90;99.90;;;;;;4966579;28;20690;-94
2020/12/09 11:21:38;;;;;;;7.93;5.23;;;1.90;99.90;;;;;;4967882;28;20515;-92
2020/12/09 11:24:04;;;;;;;3.50;2.30;;;1.80;99.90;;;;;;4964629;28;20671;-93
2020/12/09 11:26:32;;;;;;;8.27;5.30;;;1.80;99.90;;;;;;4967218;28;20738;-93
2020/12/09 11:28:58;;;;;;;7.70;4.37;;;1.80;99.90;;;;;;4966680;28;20235;-94
2020/12/09 11:31:25;;;;;;;21.73;6.97;;;1.90;99.90;;;;;;4965008;28;20401;-93
2020/12/09 11:33:52;;;;;;;5.93;4.40;;;1.90;99.90;;;;;;4984222;28;20634;-92
2020/12/09 11:36:26;;;;;;;6.90;4.03;;;2.00;99.90;;;;;;4983118;28;20227;-93
2020/12/09 11:38:53;;;;;;;7.87;5.47;;;1.90;99.90;;;;;;4982088;28;21257;-92
2020/12/09 11:41:23;;;;;;;19.03;7.77;;;2.00;99.90;;;;;;4966751;28;20311;-92
2020/12/09 11:43:49;;;;;;;10.20;6.60;;;2.10;99.90;;;;;;4973584;28;20223;-90
2020/12/09 11:46:15;;;;;;;13.33;9.27;;;2.10;99.90;;;;;;4976283;28;20196;-92
2020/12/09 11:48:41;;;;;;;6.07;4.93;;;2.10;99.90;;;;;;4977998;28;20779;-92
2020/12/09 11:51:07;;;;;;;4.30;3.97;;;2.10;99.90;;;;;;4974566;28;20256;-93
2020/12/09 11:53:33;;;;;;;4.13;3.83;;;2.10;99.90;;;;;;4949194;28;20555;-91
2020/12/09 11:55:59;;;;;;;8.70;5.53;;;2.00;99.90;;;;;;4974087;28;20642;-91
2020/12/09 11:58:25;;;;;;;5.80;5.20;;;2.00;99.90;;;;;;4950177;28;20263;-92
2020/12/09 12:00:50;;;;;;;5.07;2.53;;;1.90;99.90;;;;;;4973680;28;21301;-93
2020/12/09 12:03:16;;;;;;;54.07;9.93;;;1.90;99.90;;;;;;4956353;28;20318;-91
2020/12/09 12:05:43;;;;;;;16.03;7.03;;;1.90;99.90;;;;;;4982009;28;20220;-91
2020/12/09 12:08:09;;;;;;;10.67;8.63;;;1.90;99.90;;;;;;4966152;28;20219;-89
2020/12/09 12:10:35;;;;;;;10.20;5.43;;;2.10;99.90;;;;;;4981789;28;20224;-90
2020/12/09 12:13:02;;;;;;;9.67;6.70;;;2.20;99.90;;;;;;4951081;28;20311;-90
2020/12/09 12:15:28;;;;;;;5.93;5.33;;;2.10;99.90;;;;;;4987362;28;20243;-91
2020/12/09 12:17:54;;;;;;;12.90;6.33;;;2.00;99.90;;;;;;4966631;28;20323;-90
2020/12/09 12:20:20;;;;;;;14.13;7.60;;;2.10;99.90;;;;;;4965151;28;20577;-90
2020/12/09 12:22:46;;;;;;;9.83;7.20;;;2.10;99.90;;;;;;4964734;28;20236;-89
2020/12/09 12:25:11;;;;;;;3.93;3.63;;;2.10;99.90;;;;;;4972370;28;21089;-89
2020/12/09 12:27:37;;;;;;;11.17;8.00;;;2.00;99.90;;;;;;4966247;28;20184;-87
2020/12/09 12:30:04;;;;;;;8.90;6.97;;;2.00;99.90;;;;;;4948070;28;21050;-90
2020/12/09 12:32:30;;;;;;;9.20;6.43;;;2.00;99.90;;;;;;4988313;28;20215;-89
2020/12/09 12:34:55;;;;;;;9.50;6.30;;;2.10;99.90;;;;;;4962948;28;20231;-89
2020/12/09 12:37:21;;;;;;;11.17;7.10;;;2.30;99.90;;;;;;4970000;28;20188;-89
2020/12/09 12:39:47;;;;;;;17.37;6.47;;;2.30;99.90;;;;;;4950352;28;20200;-89
2020/12/09 12:42:13;;;;;;;9.60;7.50;;;2.10;99.90;;;;;;4971116;28;20602;-90
2020/12/09 12:44:39;;;;;;;11.93;6.67;;;2.20;99.90;;;;;;4964523;28;20266;-90
2020/12/09 12:47:04;;;;;;;8.23;7.47;;;2.20;99.90;;;;;;4974514;28;20854;-88
2020/12/09 12:49:30;;;;;;;9.80;7.40;;;2.10;99.90;;;;;;4981417;28;21457;-89
2020/12/09 12:51:59;;;;;;;10.00;5.53;;;2.10;99.90;;;;;;4966752;28;20203;-89
2020/12/09 12:54:25;;;;;;;7.77;6.70;;;2.00;99.90;;;;;;4956515;28;20226;-92